Time;durP1;ratioP1;P1;durP2;ratioP2;P2;SDS_P1;SDS_P2;PMS_P1;PMS_P2;Temp;Humidity;BMP_temperature;BMP_pressure;BME280_temperature;BME280_humidity;BME280_pressure;Samples;Min_cycle;Max_cycle;Signal;HPM_P1;HPM_P2
2023/08/27 00:00:08;;;;;;;9.98;1.45;;;19.40;99.90;;;;;;5009190;28;20497;-80
2023/08/27 00:02:35;;;;;;;5.00;1.40;;;19.40;99.90;;;;;;5011934;28;20046;-80
2023/08/27 00:05:02;;;;;;;5.47;1.83;;;19.40;99.90;;;;;;5006210;28;20046;-81
2023/08/27 00:07:28;;;;;;;8.13;1.73;;;19.40;99.90;;;;;;5008383;28;20116;-80
2023/08/27 00:09:55;;;;;;;5.25;1.65;;;19.30;99.90;;;;;;5007797;28;20092;-81
2023/08/27 00:12:22;;;;;;;1.30;1.20;;;19.30;99.90;;;;;;5001716;28;20042;-80
2023/08/27 00:14:48;;;;;;;2.47;1.27;;;19.20;99.90;;;;;;5007728;28;20458;-81
2023/08/27 00:17:15;;;;;;;5.05;1.60;;;19.20;99.90;;;;;;5014219;28;20054;-80
2023/08/27 00:19:42;;;;;;;5.53;1.42;;;19.20;99.90;;;;;;5004873;28;20109;-80
2023/08/27 00:22:09;;;;;;;5.35;2.42;;;19.20;99.90;;;;;;5006339;28;20050;-80
2023/08/27 00:24:35;;;;;;;6.68;1.60;;;19.20;99.90;;;;;;5009540;28;20104;-81
2023/08/27 00:27:03;;;;;;;5.93;1.77;;;19.10;99.90;;;;;;5000880;28;20051;-80
2023/08/27 00:29:30;;;;;;;7.88;1.73;;;19.10;99.90;;;;;;5008142;28;20038;-80
2023/08/27 00:31:57;;;;;;;3.28;1.33;;;19.10;99.90;;;;;;5012802;28;20049;-80
2023/08/27 00:34:33;;;;;;;3.00;1.33;;;19.10;99.90;;;;;;5005433;28;20049;-80
2023/08/27 00:37:03;;;;;;;2.15;1.15;;;19.00;99.90;;;;;;5003906;28;20054;-81
2023/08/27 00:39:30;;;;;;;;;;;18.90;99.90;;;;;;5013081;28;20053;-81
2023/08/27 00:41:57;;;;;;;5.38;1.20;;;18.80;99.90;;;;;;5000498;28;19933;-82
2023/08/27 00:44:24;;;;;;;6.65;1.80;;;18.80;99.90;;;;;;5006893;28;20476;-81
2023/08/27 00:46:51;;;;;;;3.25;1.50;;;18.80;99.90;;;;;;5012534;28;20494;-81
2023/08/27 00:49:17;;;;;;;6.75;1.60;;;18.90;99.90;;;;;;5005251;28;20054;-80
2023/08/27 00:51:46;;;;;;;5.68;1.40;;;18.90;99.90;;;;;;5005299;28;20049;-80
2023/08/27 00:54:13;;;;;;;3.67;1.48;;;18.90;99.90;;;;;;5011895;28;20176;-81
2023/08/27 00:56:43;;;;;;;2.65;1.52;;;19.00;99.90;;;;;;4984355;28;20057;-80
2023/08/27 00:59:12;;;;;;;2.67;1.65;;;19.00;99.90;;;;;;5011898;28;20100;-80
2023/08/27 01:01:42;;;;;;;4.03;1.75;;;19.00;99.90;;;;;;5015277;28;20100;-81
2023/08/27 01:04:09;;;;;;;6.78;1.42;;;19.00;99.90;;;;;;5008479;28;20050;-81
2023/08/27 01:06:35;;;;;;;2.17;1.20;;;19.10;99.90;;;;;;5008792;28;20514;-80
2023/08/27 01:09:29;;;;;;;5.78;1.73;;;19.10;99.90;;;;;;5015171;28;20050;-80
2023/08/27 01:12:13;;;;;;;1.63;1.30;;;19.00;99.90;;;;;;4992930;28;20050;-80
2023/08/27 01:14:46;;;;;;;7.43;1.50;;;19.00;99.90;;;;;;5011224;28;20046;-80
2023/08/27 01:17:16;;;;;;;4.32;2.08;;;19.00;99.90;;;;;;5015429;28;20053;-80
2023/08/27 01:19:43;;;;;;;;;;;19.00;99.90;;;;;;5002891;28;20573;-80
2023/08/27 01:22:09;;;;;;;5.07;1.80;;;18.90;99.90;;;;;;5009287;28;20462;-81
2023/08/27 01:24:36;;;;;;;4.82;1.73;;;18.80;99.90;;;;;;5015327;28;20398;-81
2023/08/27 01:27:10;;;;;;;7.30;1.73;;;18.70;99.90;;;;;;5008120;28;20170;-80
2023/08/27 01:29:40;;;;;;;3.47;1.50;;;18.70;99.90;;;;;;5011355;28;20077;-80
2023/08/27 01:32:31;;;;;;;5.53;1.35;;;18.80;99.90;;;;;;5015601;28;20046;-80
2023/08/27 01:34:59;;;;;;;4.05;1.70;;;18.80;99.90;;;;;;5003128;28;20046;-81
2023/08/27 01:37:26;;;;;;;5.65;2.00;;;18.80;99.90;;;;;;5009484;28;20041;-80
2023/08/27 01:40:05;;;;;;;5.55;1.88;;;18.80;99.90;;;;;;5015473;28;20057;-79
2023/08/27 01:42:33;;;;;;;5.90;1.80;;;18.80;99.90;;;;;;5004796;28;20193;-80
2023/08/27 01:44:59;;;;;;;9.80;2.40;;;18.80;99.90;;;;;;5010873;28;20050;-79
2023/08/27 01:47:26;;;;;;;3.60;1.27;;;18.70;99.90;;;;;;5014761;28;20051;-81
2023/08/27 01:49:53;;;;;;;2.60;1.50;;;18.50;99.90;;;;;;5006312;28;20420;-79
2023/08/27 01:52:20;;;;;;;4.55;1.55;;;18.50;99.90;;;;;;5008123;28;20054;-81
2023/08/27 01:54:46;;;;;;;2.47;1.00;;;18.50;99.90;;;;;;5014548;28;20053;-81
2023/08/27 01:57:13;;;;;;;6.80;1.63;;;18.60;99.90;;;;;;5010128;28;20053;-80
2023/08/27 01:59:40;;;;;;;3.30;1.55;;;18.60;99.90;;;;;;5009838;28;20058;-80
2023/08/27 02:02:06;;;;;;;2.90;1.50;;;18.60;99.90;;;;;;5013693;28;20132;-81
2023/08/27 02:04:33;;;;;;;4.35;1.75;;;18.60;99.90;;;;;;5006295;28;20049;-80
2023/08/27 02:07:00;;;;;;;2.33;1.30;;;18.60;99.90;;;;;;5005704;28;20109;-80
2023/08/27 02:09:27;;;;;;;5.07;1.10;;;18.60;99.90;;;;;;5013125;28;20108;-80
2023/08/27 02:11:54;;;;;;;4.57;1.20;;;18.50;99.90;;;;;;5009223;28;20050;-79
2023/08/27 02:14:21;;;;;;;3.50;1.35;;;18.60;99.90;;;;;;5008910;28;20097;-80
2023/08/27 02:16:47;;;;;;;1.55;1.08;;;18.50;99.90;;;;;;5009792;28;20124;-78
2023/08/27 02:19:15;;;;;;;2.63;1.15;;;18.50;99.90;;;;;;5002994;28;20042;-78
2023/08/27 02:21:41;;;;;;;2.72;1.13;;;18.50;99.90;;;;;;5004298;28;20486;-80
2023/08/27 02:24:08;;;;;;;2.47;1.20;;;18.60;99.90;;;;;;5011579;28;20104;-79
2023/08/27 02:26:35;;;;;;;1.90;1.23;;;18.60;99.90;;;;;;5009644;28;20112;-78
2023/08/27 02:29:02;;;;;;;24.92;3.03;;;18.60;99.90;;;;;;5005738;28;20104;-79
2023/08/27 02:31:28;;;;;;;5.97;1.15;;;18.60;99.90;;;;;;5010077;28;20494;-78
2023/08/27 02:33:55;;;;;;;2.53;1.38;;;18.60;99.90;;;;;;5007168;28;20054;-78
2023/08/27 02:36:22;;;;;;;2.08;1.35;;;18.70;99.90;;;;;;5002029;28;20050;-80
2023/08/27 02:38:49;;;;;;;2.53;1.30;;;18.70;99.90;;;;;;5011922;28;20540;-78
2023/08/27 02:41:15;;;;;;;2.65;1.17;;;18.70;99.90;;;;;;5010151;28;20282;-79
2023/08/27 02:43:42;;;;;;;2.42;1.17;;;18.70;99.90;;;;;;5004625;28;20059;-79
2023/08/27 02:46:09;;;;;;;2.97;1.05;;;18.60;99.90;;;;;;5008067;28;20046;-78
2023/08/27 02:48:36;;;;;;;2.72;1.10;;;18.50;99.90;;;;;;5011068;28;20076;-78
2023/08/27 02:51:02;;;;;;;4.00;1.30;;;18.50;99.90;;;;;;5001627;28;20104;-79
2023/08/27 02:53:29;;;;;;;1.98;0.98;;;18.50;99.90;;;;;;5010195;28;20568;-81
2023/08/27 02:55:56;;;;;;;2.13;0.80;;;18.60;99.90;;;;;;5010997;28;20089;-79
2023/08/27 02:58:22;;;;;;;1.60;0.98;;;18.60;99.90;;;;;;5005029;28;20121;-80
2023/08/27 03:00:49;;;;;;;3.40;1.50;;;18.60;99.90;;;;;;5007746;28;20057;-78
2023/08/27 03:03:16;;;;;;;4.80;0.98;;;18.60;99.90;;;;;;5012361;28;20054;-80
2023/08/27 03:05:43;;;;;;;1.67;1.00;;;18.60;99.90;;;;;;5000469;28;20050;-80
2023/08/27 03:08:09;;;;;;;2.30;1.00;;;18.60;99.90;;;;;;5009130;28;20480;-79
2023/08/27 03:10:36;;;;;;;1.40;0.90;;;18.70;99.90;;;;;;5008053;28;20057;-80
2023/08/27 03:13:03;;;;;;;2.50;1.08;;;18.60;99.90;;;;;;5004460;28;20062;-80
2023/08/27 03:15:30;;;;;;;2.25;1.27;;;18.60;99.90;;;;;;5005906;28;20038;-79
2023/08/27 03:17:56;;;;;;;3.70;1.88;;;18.60;99.90;;;;;;5012610;28;20054;-79
2023/08/27 03:20:23;;;;;;;3.83;1.20;;;18.60;99.90;;;;;;5001819;28;20046;-80
2023/08/27 03:22:50;;;;;;;1.40;1.17;;;18.60;99.90;;;;;;5007712;28;20046;-79
2023/08/27 03:25:16;;;;;;;1.50;1.00;;;18.60;99.90;;;;;;5011570;28;20552;-79
2023/08/27 03:27:43;;;;;;;4.32;1.20;;;18.60;99.90;;;;;;5004755;28;20198;-78
2023/08/27 03:30:10;;;;;;;2.50;1.20;;;18.60;99.90;;;;;;5002263;28;20050;-80
2023/08/27 03:32:37;;;;;;;2.40;1.55;;;18.60;99.90;;;;;;5010530;28;20433;-80
2023/08/27 03:35:04;;;;;;;2.75;1.70;;;18.60;99.90;;;;;;5004440;28;20128;-80
2023/08/27 03:37:31;;;;;;;2.83;1.48;;;18.60;99.90;;;;;;5008707;28;20493;-80
2023/08/27 03:40:00;;;;;;;3.58;1.13;;;18.70;99.90;;;;;;5008651;28;20050;-81
2023/08/27 03:42:26;;;;;;;2.75;1.30;;;18.70;99.90;;;;;;5003985;28;20046;-78
2023/08/27 03:44:53;;;;;;;3.60;1.02;;;18.70;99.90;;;;;;5002939;28;20050;-79
2023/08/27 03:47:20;;;;;;;1.35;1.08;;;18.70;99.90;;;;;;5009944;28;20069;-80
2023/08/27 03:49:47;;;;;;;3.25;1.50;;;18.70;99.90;;;;;;5011162;28;20046;-81
2023/08/27 03:52:13;;;;;;;7.55;1.83;;;18.70;99.90;;;;;;5007286;28;20472;-81
2023/08/27 03:54:40;;;;;;;2.28;1.30;;;18.70;99.90;;;;;;5010477;28;20092;-79
2023/08/27 03:57:07;;;;;;;2.08;1.20;;;18.70;99.90;;;;;;5007194;28;20046;-79
2023/08/27 03:59:33;;;;;;;2.05;1.40;;;18.70;99.90;;;;;;5002700;28;20046;-79
2023/08/27 04:02:00;;;;;;;2.08;1.25;;;18.60;99.90;;;;;;5008587;28;20042;-80
2023/08/27 04:04:28;;;;;;;3.40;1.45;;;18.60;99.90;;;;;;5009386;28;20505;-80
2023/08/27 04:06:55;;;;;;;4.50;1.60;;;18.70;99.90;;;;;;5005215;28;20046;-80
2023/08/27 04:09:22;;;;;;;4.70;1.30;;;18.70;99.90;;;;;;5008311;28;20054;-79
2023/08/27 04:11:49;;;;;;;3.22;1.30;;;18.70;99.90;;;;;;5009640;28;20042;-78
2023/08/27 04:14:15;;;;;;;2.45;1.40;;;18.70;99.90;;;;;;5000438;28;20069;-80
2023/08/27 04:16:42;;;;;;;5.35;1.55;;;18.70;99.90;;;;;;5004299;28;20499;-80
2023/08/27 04:19:09;;;;;;;3.60;1.23;;;18.60;99.90;;;;;;5008574;28;20046;-79
2023/08/27 04:21:36;;;;;;;3.13;1.33;;;18.60;99.90;;;;;;5005231;28;20092;-80
2023/08/27 04:24:03;;;;;;;2.40;1.30;;;18.60;99.90;;;;;;5005243;28;20046;-78
2023/08/27 04:26:30;;;;;;;3.15;1.20;;;18.60;99.90;;;;;;5011308;28;20042;-79
2023/08/27 04:28:56;;;;;;;2.50;1.10;;;18.60;99.90;;;;;;4998939;28;20057;-79
2023/08/27 04:31:23;;;;;;;3.88;1.45;;;18.60;99.90;;;;;;5005914;28;20041;-78
2023/08/27 04:33:51;;;;;;;1.60;1.00;;;18.60;99.90;;;;;;4993106;28;20402;-79
2023/08/27 04:36:18;;;;;;;1.98;1.30;;;18.60;99.90;;;;;;5002460;28;20054;-81
2023/08/27 04:38:45;;;;;;;2.97;1.40;;;18.60;99.90;;;;;;5005485;28;20045;-78
2023/08/27 04:41:11;;;;;;;4.00;1.33;;;18.60;99.90;;;;;;5012815;28;20045;-80
2023/08/27 04:43:39;;;;;;;6.10;1.30;;;18.60;99.90;;;;;;5000304;28;20046;-80
2023/08/27 04:46:06;;;;;;;3.13;1.45;;;18.60;99.90;;;;;;5003113;28;20046;-79
2023/08/27 04:48:33;;;;;;;2.33;1.30;;;18.60;99.90;;;;;;5012634;28;20131;-79
2023/08/27 04:51:00;;;;;;;2.50;1.10;;;18.60;99.90;;;;;;5006027;28;20045;-79
2023/08/27 04:53:27;;;;;;;3.25;1.20;;;18.60;99.90;;;;;;5005050;28;20058;-78
2023/08/27 04:55:54;;;;;;;3.55;1.40;;;18.60;99.90;;;;;;5006579;28;20050;-79
2023/08/27 04:58:21;;;;;;;4.60;1.15;;;18.70;99.90;;;;;;4998781;28;20532;-80
2023/08/27 05:00:48;;;;;;;2.38;1.23;;;18.70;99.90;;;;;;5005078;28;20092;-80
2023/08/27 05:03:15;;;;;;;2.55;1.38;;;18.70;99.90;;;;;;5010802;28;20054;-80
2023/08/27 05:05:42;;;;;;;3.38;1.40;;;18.70;99.90;;;;;;5000680;28;20133;-78
2023/08/27 05:08:08;;;;;;;1.75;1.42;;;18.70;99.90;;;;;;5003151;28;20497;-80
2023/08/27 05:10:35;;;;;;;5.43;1.30;;;18.70;99.90;;;;;;5008383;28;20046;-79
2023/08/27 05:13:03;;;;;;;4.60;1.20;;;18.60;99.90;;;;;;5005370;28;20050;-80
2023/08/27 05:15:32;;;;;;;2.10;1.25;;;18.60;99.90;;;;;;5001649;28;20061;-80
2023/08/27 05:17:58;;;;;;;3.17;1.15;;;18.60;99.90;;;;;;5009477;28;20056;-80
2023/08/27 05:20:26;;;;;;;3.20;1.30;;;18.60;99.90;;;;;;5006580;28;20047;-79
2023/08/27 05:22:53;;;;;;;1.75;1.08;;;18.60;99.90;;;;;;5002236;28;20120;-79
2023/08/27 05:25:20;;;;;;;1.63;1.40;;;18.60;99.90;;;;;;5007051;28;20085;-80
2023/08/27 05:27:47;;;;;;;2.58;1.10;;;18.60;99.90;;;;;;5002380;28;20038;-79
2023/08/27 05:30:14;;;;;;;10.23;2.85;;;18.60;99.90;;;;;;5003086;28;20158;-79
2023/08/27 05:32:41;;;;;;;2.67;1.02;;;18.70;99.90;;;;;;5009082;28;20052;-81
2023/08/27 05:35:08;;;;;;;2.25;1.00;;;18.70;99.90;;;;;;5008357;28;20050;-81
2023/08/27 05:37:36;;;;;;;1.65;1.10;;;18.70;99.90;;;;;;5003273;28;20101;-79
2023/08/27 05:40:08;;;;;;;2.10;1.10;;;18.70;99.90;;;;;;5007046;28;20049;-80
2023/08/27 05:42:35;;;;;;;3.35;1.48;;;18.70;99.90;;;;;;5010077;28;20461;-80
2023/08/27 05:45:03;;;;;;;2.10;1.05;;;18.70;99.90;;;;;;5005933;28;20046;-79
2023/08/27 05:47:30;;;;;;;4.78;1.35;;;18.70;99.90;;;;;;5012195;28;20049;-80
2023/08/27 05:49:57;;;;;;;3.38;1.67;;;18.70;99.90;;;;;;5013013;28;20046;-80
2023/08/27 05:52:24;;;;;;;3.58;1.60;;;18.70;99.90;;;;;;5005418;28;20479;-80
2023/08/27 05:54:50;;;;;;;4.70;1.77;;;18.70;99.90;;;;;;5009214;28;20054;-79
2023/08/27 05:57:17;;;;;;;5.97;1.40;;;18.70;99.90;;;;;;4990446;28;20054;-80
2023/08/27 05:59:44;;;;;;;2.75;1.33;;;18.70;99.90;;;;;;5007138;28;20509;-78
2023/08/27 06:02:13;;;;;;;1.95;1.02;;;18.70;99.90;;;;;;5007923;28;20061;-79
2023/08/27 06:04:40;;;;;;;3.30;1.48;;;18.70;99.90;;;;;;5013919;28;20116;-79
2023/08/27 06:07:11;;;;;;;3.72;1.17;;;18.70;99.90;;;;;;5003043;28;20122;-80
2023/08/27 06:09:37;;;;;;;;;;;18.70;99.90;;;;;;5008339;28;20056;-80
2023/08/27 06:12:06;;;;;;;3.58;1.38;;;18.70;99.90;;;;;;5013977;28;20440;-79
2023/08/27 06:14:33;;;;;;;1.77;0.95;;;18.80;99.90;;;;;;5006300;28;20056;-79
2023/08/27 06:17:00;;;;;;;2.08;1.13;;;18.80;99.90;;;;;;5006930;28;20049;-79
2023/08/27 06:19:27;;;;;;;2.78;1.25;;;18.80;99.90;;;;;;5013351;28;20076;-78
2023/08/27 06:22:08;;;;;;;2.53;1.33;;;18.80;99.90;;;;;;5003113;28;20494;-79
2023/08/27 06:24:35;;;;;;;3.72;1.48;;;18.80;99.90;;;;;;5006438;28;20045;-79
2023/08/27 06:27:02;;;;;;;1.98;1.15;;;18.80;99.90;;;;;;5014113;28;20107;-80
2023/08/27 06:29:28;;;;;;;2.83;1.27;;;18.90;99.90;;;;;;5010337;28;20046;-81
2023/08/27 06:31:55;;;;;;;1.75;1.10;;;18.90;99.90;;;;;;5010271;28;20050;-80
2023/08/27 06:34:22;;;;;;;3.67;1.30;;;18.90;99.90;;;;;;5013919;28;20060;-79
2023/08/27 06:36:49;;;;;;;6.00;1.60;;;18.90;99.90;;;;;;5005870;28;20568;-80
2023/08/27 06:39:16;;;;;;;3.72;1.33;;;19.00;99.90;;;;;;5004439;28;20050;-79
2023/08/27 06:41:42;;;;;;;1.35;0.98;;;19.00;99.90;;;;;;5012893;28;20046;-81
2023/08/27 06:44:09;;;;;;;2.72;1.35;;;19.00;99.90;;;;;;5009550;28;20458;-80
2023/08/27 06:46:36;;;;;;;2.35;0.95;;;19.10;99.90;;;;;;5009164;28;20046;-80
2023/08/27 06:49:03;;;;;;;3.83;1.10;;;19.10;99.90;;;;;;5011764;28;20064;-80
2023/08/27 06:51:30;;;;;;;2.95;0.95;;;19.20;99.90;;;;;;5005872;28;20050;-79
2023/08/27 06:53:57;;;;;;;2.50;1.60;;;19.20;99.90;;;;;;5004205;28;20046;-80
2023/08/27 06:56:26;;;;;;;3.50;1.65;;;19.20;99.90;;;;;;5011133;28;20056;-79
2023/08/27 06:58:53;;;;;;;3.42;1.30;;;19.30;99.90;;;;;;5010994;28;20046;-80
2023/08/27 07:01:20;;;;;;;4.55;1.20;;;19.30;99.90;;;;;;5008151;28;20046;-80
2023/08/27 07:03:46;;;;;;;2.75;1.10;;;19.30;99.90;;;;;;5010567;28;20037;-79
2023/08/27 07:06:13;;;;;;;1.45;1.08;;;19.30;99.90;;;;;;5008622;28;20096;-81
2023/08/27 07:08:41;;;;;;;5.50;1.17;;;19.30;99.90;;;;;;5004183;28;20046;-81
2023/08/27 07:11:08;;;;;;;4.50;1.00;;;19.40;99.90;;;;;;5011400;28;20046;-80
2023/08/27 07:13:35;;;;;;;2.03;1.30;;;19.40;99.90;;;;;;5012032;28;20085;-78
2023/08/27 07:16:02;;;;;;;1.70;0.85;;;19.40;99.90;;;;;;5006490;28;20141;-81
2023/08/27 07:18:29;;;;;;;2.78;1.33;;;19.40;99.90;;;;;;5010539;28;20042;-80
2023/08/27 07:20:56;;;;;;;1.38;0.90;;;19.40;99.90;;;;;;5009926;28;20057;-81
2023/08/27 07:23:23;;;;;;;3.50;1.10;;;19.40;99.90;;;;;;5003643;28;20050;-80
2023/08/27 07:25:50;;;;;;;1.70;1.05;;;19.50;99.90;;;;;;5007823;28;20052;-81
2023/08/27 07:28:17;;;;;;;0.82;0.73;;;19.50;99.90;;;;;;5011615;28;20049;-80
2023/08/27 07:30:47;;;;;;;1.65;1.17;;;19.50;99.90;;;;;;5007181;28;20053;-81
2023/08/27 07:33:14;;;;;;;2.03;1.00;;;19.60;99.90;;;;;;5007519;28;20050;-81
2023/08/27 07:35:41;;;;;;;4.93;0.75;;;19.60;99.90;;;;;;5013241;28;20049;-80
2023/08/27 07:38:07;;;;;;;1.42;0.90;;;19.70;99.90;;;;;;5002230;28;20041;-81
2023/08/27 07:40:37;;;;;;;3.33;0.85;;;19.70;99.90;;;;;;5009085;28;20081;-80
2023/08/27 07:43:04;;;;;;;1.45;0.80;;;19.80;99.90;;;;;;5012233;28;20046;-80
2023/08/27 07:45:31;;;;;;;2.97;0.95;;;19.80;99.90;;;;;;5005246;28;20057;-80
2023/08/27 07:47:58;;;;;;;1.35;0.93;;;19.90;99.90;;;;;;5008252;28;20527;-80
2023/08/27 07:50:27;;;;;;;1.40;1.00;;;19.90;99.90;;;;;;5013138;28;20038;-80
2023/08/27 07:52:54;;;;;;;1.00;0.90;;;19.90;99.90;;;;;;5001354;28;20046;-81
2023/08/27 07:55:21;;;;;;;1.05;0.77;;;19.90;99.90;;;;;;4990651;28;20572;-81
2023/08/27 07:57:48;;;;;;;2.05;0.90;;;19.90;99.90;;;;;;5012903;28;20046;-81
2023/08/27 08:00:15;;;;;;;3.50;1.13;;;19.90;99.90;;;;;;5002809;28;20109;-79
2023/08/27 08:02:41;;;;;;;3.30;0.80;;;19.90;99.90;;;;;;5006081;28;20123;-81
2023/08/27 08:05:09;;;;;;;1.45;0.90;;;19.90;99.90;;;;;;5011552;28;20046;-81
2023/08/27 08:07:36;;;;;;;1.67;0.85;;;19.90;99.90;;;;;;4984467;28;20052;-80
2023/08/27 08:10:03;;;;;;;1.70;1.10;;;19.80;99.90;;;;;;5006688;28;20413;-81
2023/08/27 08:12:30;;;;;;;1.52;0.93;;;19.80;99.90;;;;;;4995380;28;20113;-81
2023/08/27 08:14:57;;;;;;;2.83;1.05;;;19.80;99.90;;;;;;5005994;28;20137;-81
2023/08/27 08:17:24;;;;;;;2.15;0.90;;;19.80;99.90;;;;;;5004199;28;20049;-80
2023/08/27 08:20:11;;;;;;;1.20;1.08;;;19.80;99.90;;;;;;5012227;28;20050;-80
2023/08/27 08:22:39;;;;;;;0.90;0.70;;;19.80;99.90;;;;;;4983060;28;20058;-80
2023/08/27 08:25:06;;;;;;;1.00;0.90;;;19.80;99.90;;;;;;5008267;28;20041;-80
2023/08/27 08:27:33;;;;;;;0.75;0.70;;;19.80;99.90;;;;;;5011349;28;20042;-80
2023/08/27 08:30:03;;;;;;;4.00;0.95;;;19.80;99.90;;;;;;5006071;28;20072;-81
2023/08/27 08:32:30;;;;;;;2.83;0.87;;;19.80;99.90;;;;;;5004407;28;20051;-81
2023/08/27 08:34:56;;;;;;;1.50;1.40;;;19.90;99.90;;;;;;5009109;28;20322;-81
2023/08/27 08:37:23;;;;;;;3.00;1.13;;;19.90;99.90;;;;;;5005056;28;20050;-81
2023/08/27 08:39:50;;;;;;;1.52;0.90;;;20.00;99.90;;;;;;5004603;28;20048;-81
2023/08/27 08:42:34;;;;;;;3.13;1.23;;;20.00;99.90;;;;;;5008292;28;20056;-80
2023/08/27 08:45:10;;;;;;;3.38;0.77;;;20.10;99.90;;;;;;5002554;28;20046;-81
2023/08/27 08:47:37;;;;;;;1.85;0.82;;;20.20;99.90;;;;;;5003519;28;20050;-80
2023/08/27 08:50:07;;;;;;;1.45;0.77;;;20.40;99.90;;;;;;5011158;28;20391;-80
2023/08/27 08:52:42;;;;;;;1.27;0.85;;;20.40;99.90;;;;;;5005844;28;20402;-81
2023/08/27 08:55:10;;;;;;;1.95;0.93;;;20.60;99.90;;;;;;5008530;28;20050;-80
2023/08/27 08:57:47;;;;;;;2.22;0.80;;;20.60;99.90;;;;;;5010910;28;20060;-82
2023/08/27 09:00:15;;;;;;;2.65;0.90;;;20.80;99.90;;;;;;4997927;28;20052;-81
2023/08/27 09:02:42;;;;;;;3.03;1.33;;;20.80;99.90;;;;;;5005070;28;20123;-81
2023/08/27 09:05:12;;;;;;;4.82;1.10;;;20.90;99.90;;;;;;5011307;28;20050;-80
2023/08/27 09:07:40;;;;;;;;;;;20.90;99.90;;;;;;5005646;28;20049;-81
2023/08/27 09:10:09;;;;;;;1.00;0.70;;;20.90;99.90;;;;;;5008065;28;19996;-80
2023/08/27 09:12:39;;;;;;;3.03;1.30;;;20.90;99.90;;;;;;5010714;28;20046;-81
2023/08/27 09:15:10;;;;;;;;;;;21.00;99.90;;;;;;5006661;28;20137;-79
2023/08/27 09:17:37;;;;;;;2.30;1.10;;;21.00;99.90;;;;;;4988300;28;19921;-81
2023/08/27 09:20:07;;;;;;;1.63;0.82;;;21.00;99.90;;;;;;5014193;28;20046;-81
2023/08/27 09:22:35;;;;;;;2.70;1.00;;;21.10;99.90;;;;;;5012274;28;20056;-81
2023/08/27 09:25:03;;;;;;;2.75;0.90;;;21.10;99.90;;;;;;5010804;28;20457;-81
2023/08/27 09:27:31;;;;;;;1.08;0.90;;;21.20;99.90;;;;;;5013916;28;20058;-80
2023/08/27 09:30:00;;;;;;;2.25;0.90;;;21.30;99.90;;;;;;5010745;28;20042;-80
2023/08/27 09:32:28;;;;;;;2.67;0.85;;;21.30;99.90;;;;;;5007599;28;20629;-81
2023/08/27 09:35:00;;;;;;;1.77;0.73;;;21.40;99.90;;;;;;5011761;28;20050;-80
2023/08/27 09:37:28;;;;;;;1.98;0.70;;;21.50;99.90;;;;;;5014809;28;20050;-81
2023/08/27 09:39:55;;;;;;;2.08;0.90;;;21.70;99.90;;;;;;5007249;28;20103;-81
2023/08/27 09:42:22;;;;;;;1.63;1.02;;;21.80;99.90;;;;;;5013287;28;20054;-81
2023/08/27 09:44:50;;;;;;;2.25;0.80;;;21.90;99.90;;;;;;5010722;28;20050;-81
2023/08/27 09:47:17;;;;;;;2.15;0.95;;;22.00;99.90;;;;;;5005787;28;20105;-80
2023/08/27 09:49:44;;;;;;;2.10;1.20;;;22.10;99.90;;;;;;5009729;28;20493;-81
2023/08/27 09:52:11;;;;;;;5.18;1.20;;;22.10;99.90;;;;;;5015854;28;20172;-80
2023/08/27 09:54:42;;;;;;;2.83;1.05;;;22.20;99.90;;;;;;5009180;28;20046;-81
2023/08/27 09:57:16;;;;;;;3.42;1.10;;;22.30;99.90;;;;;;5011574;28;20097;-81
2023/08/27 09:59:43;;;;;;;2.13;0.93;;;22.40;99.90;;;;;;4994489;28;20058;-81
2023/08/27 10:02:14;;;;;;;1.20;0.90;;;22.40;99.90;;;;;;5005386;28;20049;-79
2023/08/27 10:04:54;;;;;;;1.52;1.00;;;22.50;99.90;;;;;;5011540;28;20073;-81
2023/08/27 10:07:22;;;;;;;2.08;0.80;;;22.50;99.90;;;;;;5013654;28;20050;-80
2023/08/27 10:09:53;;;;;;;1.83;0.85;;;22.60;99.90;;;;;;5009336;28;20046;-81
2023/08/27 10:12:21;;;;;;;0.95;0.85;;;22.60;99.90;;;;;;5011155;28;20041;-81
2023/08/27 10:14:48;;;;;;;3.25;0.88;;;22.60;99.90;;;;;;5013645;28;20057;-82
2023/08/27 10:17:15;;;;;;;4.55;0.90;;;22.60;99.90;;;;;;5004732;28;20057;-80
2023/08/27 10:19:42;;;;;;;1.13;0.75;;;22.70;99.90;;;;;;5012659;28;20097;-78
2023/08/27 10:22:10;;;;;;;2.67;0.73;;;22.70;99.90;;;;;;5004844;28;20108;-77
2023/08/27 10:24:39;;;;;;;2.72;1.10;;;22.70;99.90;;;;;;5005616;28;20050;-78
2023/08/27 10:27:06;;;;;;;1.23;0.80;;;22.70;99.90;;;;;;5006374;28;20487;-79
2023/08/27 10:29:34;;;;;;;1.92;0.80;;;22.80;99.90;;;;;;5006804;28;20050;-79
2023/08/27 10:32:02;;;;;;;2.75;0.90;;;22.80;99.90;;;;;;5003417;28;20054;-79
2023/08/27 10:34:30;;;;;;;4.57;1.25;;;22.80;99.90;;;;;;4989475;28;20057;-79
2023/08/27 10:37:06;;;;;;;1.98;1.10;;;22.80;99.90;;;;;;5009844;28;20050;-79
2023/08/27 10:39:36;;;;;;;2.05;1.20;;;22.80;99.90;;;;;;5009255;28;20057;-79
2023/08/27 10:42:04;;;;;;;1.70;0.77;;;22.80;99.90;;;;;;5002802;28;20054;-79
2023/08/27 10:44:32;;;;;;;3.70;1.35;;;22.80;99.90;;;;;;5007766;28;20427;-78
2023/08/27 10:47:09;;;;;;;2.60;0.82;;;22.80;99.90;;;;;;5008589;28;20104;-79
2023/08/27 10:49:37;;;;;;;2.83;0.80;;;22.90;99.90;;;;;;4999486;28;20100;-79
2023/08/27 10:52:25;;;;;;;2.22;0.80;;;22.90;99.90;;;;;;5006307;28;20050;-78
2023/08/27 10:55:00;;;;;;;2.70;0.90;;;23.00;99.90;;;;;;5004408;28;20050;-78
2023/08/27 10:57:27;;;;;;;2.88;0.95;;;23.00;99.90;;;;;;4988525;28;20081;-79
2023/08/27 11:00:10;;;;;;;1.85;1.10;;;22.90;99.90;;;;;;5007334;28;20132;-79
2023/08/27 11:02:57;;;;;;;2.35;1.10;;;22.90;99.90;;;;;;4985882;28;20506;-79
2023/08/27 11:05:29;;;;;;;1.45;0.85;;;22.80;99.90;;;;;;5005676;28;20124;-79
2023/08/27 11:07:59;;;;;;;1.80;1.15;;;22.80;99.90;;;;;;5008492;28;20322;-78
2023/08/27 11:10:31;;;;;;;3.90;1.00;;;22.70;99.90;;;;;;4990577;28;20046;-77
2023/08/27 11:12:58;;;;;;;2.38;1.10;;;22.70;99.90;;;;;;5002039;28;20054;-78
2023/08/27 11:15:31;;;;;;;4.80;1.10;;;22.80;99.90;;;;;;5005100;28;20058;-79
2023/08/27 11:17:59;;;;;;;3.15;1.05;;;22.70;99.90;;;;;;5006117;28;20081;-80
2023/08/27 11:20:27;;;;;;;5.72;1.42;;;22.70;99.90;;;;;;5002408;28;20100;-77
2023/08/27 11:22:58;;;;;;;3.78;1.17;;;22.60;99.90;;;;;;5005204;28;20050;-79
2023/08/27 11:25:27;;;;;;;3.60;1.40;;;22.60;99.90;;;;;;5007568;28;20046;-79
2023/08/27 11:28:00;;;;;;;1.75;0.88;;;22.70;99.90;;;;;;5002203;28;20250;-79
2023/08/27 11:30:28;;;;;;;2.20;0.80;;;22.80;99.90;;;;;;5005308;28;20043;-78
2023/08/27 11:32:56;;;;;;;3.20;1.08;;;22.90;99.90;;;;;;5002129;28;20465;-79
2023/08/27 11:35:25;;;;;;;2.60;1.10;;;23.00;99.90;;;;;;5006334;28;20132;-79
2023/08/27 11:37:51;;;;;;;4.88;1.10;;;23.00;99.90;;;;;;5008363;28;20045;-79
2023/08/27 11:40:23;;;;;;;2.13;1.10;;;23.10;99.90;;;;;;5005881;28;20050;-79
2023/08/27 11:42:54;;;;;;;1.60;1.20;;;23.20;99.90;;;;;;5005537;28;20054;-79
2023/08/27 11:45:37;;;;;;;3.42;1.40;;;23.20;99.90;;;;;;5006486;28;20050;-78
2023/08/27 11:48:06;;;;;;;2.55;1.02;;;23.30;99.90;;;;;;5002687;28;20054;-79
2023/08/27 11:50:33;;;;;;;1.48;0.90;;;23.40;99.90;;;;;;5002676;28;20537;-78
2023/08/27 11:53:01;;;;;;;3.88;1.17;;;23.50;99.90;;;;;;5006508;28;20042;-79
2023/08/27 11:55:28;;;;;;;2.53;1.17;;;23.50;99.90;;;;;;5007569;28;20049;-78
2023/08/27 11:57:55;;;;;;;2.58;1.20;;;23.50;99.90;;;;;;4997912;28;20660;-79
2023/08/27 12:00:22;;;;;;;3.05;1.30;;;23.50;99.90;;;;;;5006558;28;20050;-79
2023/08/27 12:02:49;;;;;;;1.80;0.82;;;23.60;99.90;;;;;;5008167;28;20103;-79
2023/08/27 12:05:16;;;;;;;1.88;1.20;;;23.60;99.90;;;;;;5005282;28;20081;-78
2023/08/27 12:07:43;;;;;;;3.85;1.10;;;23.50;99.90;;;;;;5005106;28;20105;-79
2023/08/27 12:10:13;;;;;;;3.25;2.00;;;23.50;99.90;;;;;;4989835;28;20658;-79
2023/08/27 12:12:41;;;;;;;1.77;1.15;;;23.50;99.90;;;;;;5009778;28;20050;-78
2023/08/27 12:15:09;;;;;;;1.17;1.00;;;23.40;99.90;;;;;;5008274;28;20425;-79
2023/08/27 12:17:37;;;;;;;2.88;1.05;;;23.30;99.90;;;;;;5006255;28;20473;-79
2023/08/27 12:20:07;;;;;;;1.73;0.90;;;23.30;99.90;;;;;;5004696;28;20056;-79
2023/08/27 12:22:44;;;;;;;2.63;1.10;;;23.20;99.90;;;;;;5006865;28;20054;-79
2023/08/27 12:25:12;;;;;;;2.85;1.30;;;23.10;99.90;;;;;;5005699;28;20046;-79
2023/08/27 12:27:42;;;;;;;4.57;1.45;;;23.10;99.90;;;;;;5004577;28;20050;-79
2023/08/27 12:30:13;;;;;;;3.55;1.00;;;23.10;99.90;;;;;;5007969;28;20041;-79
2023/08/27 12:32:40;;;;;;;3.00;1.10;;;23.10;99.90;;;;;;5009162;28;20049;-77
2023/08/27 12:35:07;;;;;;;4.15;1.33;;;23.00;99.90;;;;;;5004910;28;20108;-77
2023/08/27 12:37:34;;;;;;;2.90;1.42;;;23.00;99.90;;;;;;5001174;28;20502;-77
2023/08/27 12:40:01;;;;;;;4.43;1.40;;;22.90;99.90;;;;;;5002164;28;20048;-76
2023/08/27 12:42:28;;;;;;;2.53;1.05;;;22.80;99.90;;;;;;5002966;28;20099;-76
2023/08/27 12:44:55;;;;;;;3.00;1.40;;;22.80;99.90;;;;;;5005334;28;20043;-76
2023/08/27 12:47:21;;;;;;;4.53;2.20;;;22.80;99.90;;;;;;5006062;28;20053;-77
2023/08/27 12:49:48;;;;;;;8.88;1.85;;;22.70;99.90;;;;;;5001262;28;20097;-77
2023/08/27 12:52:15;;;;;;;4.20;1.40;;;22.70;99.90;;;;;;5007287;28;20120;-77